Time;durP1;ratioP1;P1;durP2;ratioP2;P2;SDS_P1;SDS_P2;PMS_P1;PMS_P2;Temp;Humidity;BMP_temperature;BMP_pressure;BME280_temperature;BME280_humidity;BME280_pressure;Samples;Min_cycle;Max_cycle;Signal;HPM_P1;HPM_P2
2023/05/12 00:01:10;;;;;;;13.23;6.85;;;;;;;9.96;100.00;101919.91;5134307;27;20042;-75
2023/05/12 00:03:35;;;;;;;11.45;6.00;;;;;;;9.92;100.00;101918.41;5134851;27;20047;-75
2023/05/12 00:06:03;;;;;;;13.23;5.97;;;;;;;9.91;100.00;101919.34;5133417;27;20577;-76
2023/05/12 00:08:29;;;;;;;13.80;6.93;;;;;;;9.88;100.00;101915.97;5134120;27;20027;-75
2023/05/12 00:10:55;;;;;;;14.63;6.82;;;;;;;9.87;100.00;101916.06;5134325;27;20027;-75
2023/05/12 00:13:22;;;;;;;12.30;6.65;;;;;;;9.86;100.00;101923.19;5134249;27;20027;-76
2023/05/12 00:15:48;;;;;;;14.07;6.70;;;;;;;9.85;100.00;101912.66;5134227;27;20027;-75
2023/05/12 00:18:13;;;;;;;13.27;6.50;;;;;;;9.84;100.00;101913.63;5134299;27;20035;-75
2023/05/12 00:20:39;;;;;;;11.90;6.65;;;;;;;9.82;100.00;101918.19;5134767;27;20031;-75
2023/05/12 00:23:04;;;;;;;13.98;6.15;;;;;;;9.79;100.00;101921.06;5134191;27;20031;-76
2023/05/12 00:25:30;;;;;;;10.23;6.15;;;;;;;9.77;100.00;101915.00;5134682;27;20356;-75
2023/05/12 00:27:55;;;;;;;12.57;6.00;;;;;;;9.75;100.00;101916.91;5134239;27;20105;-76
2023/05/12 00:30:21;;;;;;;10.52;6.13;;;;;;;9.73;100.00;101914.38;5134325;27;20063;-75
2023/05/12 00:32:46;;;;;;;10.52;5.60;;;;;;;9.71;100.00;101909.16;5134018;27;20080;-76
2023/05/12 00:35:11;;;;;;;10.13;5.95;;;;;;;9.68;100.00;101919.16;5133793;27;20080;-75
2023/05/12 00:37:37;;;;;;;9.55;5.68;;;;;;;9.66;100.00;101910.47;5133994;27;20023;-75
2023/05/12 00:40:03;;;;;;;10.63;5.43;;;;;;;9.63;100.00;101914.16;5134457;28;20115;-75
2023/05/12 00:42:29;;;;;;;8.43;5.65;;;;;;;9.62;100.00;101906.31;5133966;27;20118;-76
2023/05/12 00:44:54;;;;;;;8.30;5.32;;;;;;;9.61;100.00;101913.41;5134080;28;20063;-76
2023/05/12 00:47:20;;;;;;;9.75;5.72;;;;;;;9.60;100.00;101910.84;5133994;27;20027;-76
2023/05/12 00:49:45;;;;;;;8.93;5.38;;;;;;;9.57;100.00;101911.06;5133815;27;20091;-76
2023/05/12 00:52:11;;;;;;;8.55;4.80;;;;;;;9.55;100.00;101907.69;5133656;27;20039;-76
2023/05/12 00:54:38;;;;;;;10.02;5.30;;;;;;;9.52;100.00;101903.41;5137444;27;20031;-76
2023/05/12 00:57:05;;;;;;;9.18;4.72;;;;;;;9.48;100.00;101900.13;5137930;27;20045;-75
2023/05/12 00:59:30;;;;;;;7.68;4.95;;;;;;;9.45;100.00;101900.34;5138281;27;20031;-75
2023/05/12 01:01:56;;;;;;;8.93;4.57;;;;;;;9.43;100.00;101901.41;5138027;27;20482;-76
2023/05/12 01:04:22;;;;;;;7.70;4.70;;;;;;;9.42;100.00;101902.34;5136563;27;20053;-75
2023/05/12 01:06:55;;;;;;;9.20;4.60;;;;;;;9.40;100.00;101898.97;5138331;27;20028;-74
2023/05/12 01:09:21;;;;;;;10.98;4.90;;;;;;;9.38;100.00;101900.88;5138145;27;20064;-75
2023/05/12 01:11:46;;;;;;;7.40;4.82;;;;;;;9.35;100.00;101904.59;5137332;27;20360;-75
2023/05/12 01:14:11;;;;;;;6.72;4.53;;;;;;;9.32;100.00;101897.69;5137631;27;20035;-74
2023/05/12 01:16:49;;;;;;;11.10;4.70;;;;;;;9.32;100.00;101894.19;5137453;27;20034;-74
2023/05/12 01:19:42;;;;;;;8.35;4.90;;;;;;;9.30;100.00;101896.06;5138020;27;20072;-75
2023/05/12 01:22:08;;;;;;;7.97;4.72;;;;;;;9.27;100.00;101897.16;5137270;27;20134;-75
2023/05/12 01:24:44;;;;;;;8.15;4.82;;;;;;;9.27;100.00;101896.28;5137742;27;20076;-75
2023/05/12 01:27:10;;;;;;;10.38;5.00;;;;;;;9.29;100.00;101902.38;5137713;27;20027;-75
2023/05/12 01:29:35;;;;;;;11.90;5.72;;;;;;;9.27;100.00;101897.16;5137435;27;20434;-75
2023/05/12 01:32:02;;;;;;;12.77;6.13;;;;;;;9.27;100.00;101896.28;5137214;27;20037;-75
2023/05/12 01:34:27;;;;;;;11.45;5.90;;;;;;;9.28;100.00;101901.50;5137331;27;20038;-75
2023/05/12 01:36:52;;;;;;;12.77;6.40;;;;;;;9.30;100.00;101893.41;5137050;27;20027;-74
2023/05/12 01:39:18;;;;;;;11.35;6.45;;;;;;;9.31;100.00;101895.13;5137226;27;20058;-75
2023/05/12 01:41:43;;;;;;;14.35;7.55;;;;;;;9.30;100.00;101891.63;5137058;27;20501;-75
2023/05/12 01:44:08;;;;;;;18.77;7.57;;;;;;;9.32;100.00;101891.53;5136941;27;20386;-75
2023/05/12 01:46:34;;;;;;;16.80;8.75;;;;;;;9.32;100.00;101903.00;5136908;27;20035;-75
2023/05/12 01:48:59;;;;;;;21.85;9.18;;;;;;;9.34;100.00;101890.47;5136951;27;20114;-75
2023/05/12 01:51:24;;;;;;;23.60;9.52;;;;;;;9.34;100.00;101895.78;5136551;27;20035;-74
2023/05/12 01:53:50;;;;;;;20.60;9.13;;;;;;;9.36;100.00;101898.34;5136986;27;20031;-75
2023/05/12 01:56:15;;;;;;;20.90;9.45;;;;;;;9.34;100.00;101895.78;5136548;27;20027;-75
2023/05/12 01:58:41;;;;;;;21.00;8.60;;;;;;;9.37;100.00;101893.88;5137186;27;20364;-74
2023/05/12 02:01:06;;;;;;;15.65;8.63;;;;;;;9.39;100.00;101900.78;5136597;27;20463;-76
2023/05/12 02:03:31;;;;;;;19.95;9.30;;;;;;;9.39;100.00;101894.59;5135911;27;20424;-76
2023/05/12 02:05:57;;;;;;;16.30;8.88;;;;;;;9.40;100.00;101891.00;5135222;28;20108;-75
2023/05/12 02:08:22;;;;;;;19.13;8.23;;;;;;;9.40;100.00;101894.50;5135476;27;20042;-75
2023/05/12 02:10:48;;;;;;;18.33;8.00;;;;;;;9.43;100.00;101886.31;5134103;28;20420;-74
2023/05/12 02:13:14;;;;;;;19.17;8.38;;;;;;;9.44;100.00;101885.38;5135613;27;20031;-74
2023/05/12 02:15:39;;;;;;;19.17;8.75;;;;;;;9.45;100.00;101889.72;5134825;27;20084;-75
2023/05/12 02:18:05;;;;;;;19.02;8.63;;;;;;;9.48;100.00;101888.66;5134905;27;20046;-76
2023/05/12 02:20:30;;;;;;;19.92;8.68;;;;;;;9.49;100.00;101890.34;5135803;27;20037;-75
2023/05/12 02:22:55;;;;;;;17.95;8.65;;;;;;;9.47;100.00;101884.31;5134268;28;20485;-75
2023/05/12 02:25:21;;;;;;;20.25;8.88;;;;;;;9.47;100.00;101881.66;5135347;28;20043;-75
2023/05/12 02:27:46;;;;;;;17.90;8.85;;;;;;;9.47;100.00;101873.69;5135379;28;20108;-75
2023/05/12 02:30:12;;;;;;;20.05;9.93;;;;;;;9.47;100.00;101873.69;5135472;27;20035;-76
2023/05/12 02:32:37;;;;;;;16.98;9.80;;;;;;;9.47;100.00;101879.00;5135006;27;20027;-75
2023/05/12 02:35:03;;;;;;;18.55;10.18;;;;;;;9.46;100.00;101871.97;5133412;28;20038;-74
2023/05/12 02:37:28;;;;;;;19.63;9.88;;;;;;;9.45;100.00;101876.44;5133585;28;20028;-74
2023/05/12 02:39:53;;;;;;;18.45;9.57;;;;;;;9.44;100.00;101881.88;5135186;28;20031;-73
2023/05/12 02:42:19;;;;;;;20.60;10.02;;;;;;;9.42;100.00;101871.34;5134887;27;20076;-73
2023/05/12 02:44:44;;;;;;;18.27;9.07;;;;;;;9.43;100.00;101872.19;5134853;27;20167;-73
2023/05/12 02:47:09;;;;;;;19.02;9.73;;;;;;;9.42;100.00;101875.78;5135078;27;20035;-74
2023/05/12 02:49:35;;;;;;;17.13;9.95;;;;;;;9.40;100.00;101859.13;5134633;28;20031;-73
2023/05/12 02:52:00;;;;;;;25.17;10.40;;;;;;;9.39;100.00;101862.72;5134795;28;20023;-74
2023/05/12 02:54:26;;;;;;;17.95;8.75;;;;;;;9.38;100.00;101864.53;5134670;28;20031;-73
2023/05/12 02:56:52;;;;;;;13.43;7.35;;;;;;;9.35;100.00;101865.59;5134667;27;20413;-74
2023/05/12 02:59:17;;;;;;;15.57;7.00;;;;;;;9.33;100.00;101861.34;5134726;27;20428;-75
2023/05/12 03:01:42;;;;;;;17.17;6.70;;;;;;;9.29;100.00;101863.38;5134561;27;20508;-74
2023/05/12 03:04:08;;;;;;;11.43;5.30;;;;;;;9.28;100.00;101864.31;5096165;27;1088238;-74
2023/05/12 03:06:33;;;;;;;12.27;6.10;;;;;;;9.25;100.00;101859.22;5135691;27;20118;-72
2023/05/12 03:08:58;;;;;;;10.55;6.45;;;;;;;9.26;100.00;101855.63;5135518;27;20027;-74
2023/05/12 03:11:24;;;;;;;12.52;6.50;;;;;;;9.26;100.00;101854.78;5135349;27;20459;-73
2023/05/12 03:13:50;;;;;;;13.00;5.88;;;;;;;9.26;100.00;101852.13;5135751;27;20038;-74
2023/05/12 03:16:16;;;;;;;14.48;6.95;;;;;;;9.24;100.00;101854.88;5134405;27;20031;-73
2023/05/12 03:18:42;;;;;;;15.85;7.22;;;;;;;9.23;100.00;101855.81;5135518;27;20035;-72
2023/05/12 03:21:07;;;;;;;15.25;7.97;;;;;;;9.23;100.00;101847.03;5135205;27;20031;-71
2023/05/12 03:23:33;;;;;;;19.25;7.95;;;;;;;9.20;100.00;101848.06;5135387;27;20038;-74
2023/05/12 03:25:59;;;;;;;16.30;7.75;;;;;;;9.18;100.00;101840.22;5135606;27;20390;-74
2023/05/12 03:28:25;;;;;;;13.57;6.85;;;;;;;9.16;100.00;101833.28;5135792;27;20031;-73
2023/05/12 03:30:50;;;;;;;15.65;6.68;;;;;;;9.15;100.00;101834.25;5135121;27;20122;-73
2023/05/12 03:33:15;;;;;;;11.65;5.07;;;;;;;9.12;100.00;101832.66;5134949;27;20035;-73
2023/05/12 03:35:41;;;;;;;10.43;4.82;;;;;;;9.11;100.00;101836.28;5134812;27;20032;-73
2023/05/12 03:38:06;;;;;;;13.48;4.40;;;;;;;9.10;100.00;101831.06;5134855;27;20084;-73
2023/05/12 03:40:32;;;;;;;10.23;3.70;;;;;;;9.08;100.00;101831.19;5134568;27;20416;-72
2023/05/12 03:42:57;;;;;;;9.32;3.88;;;;;;;9.07;100.00;101818.00;5134754;27;20043;-72
2023/05/12 03:45:23;;;;;;;7.68;3.90;;;;;;;9.07;100.00;101829.47;5134503;27;20031;-73
2023/05/12 03:47:48;;;;;;;8.88;3.85;;;;;;;9.07;100.00;101831.28;5134766;27;20058;-73
2023/05/12 03:50:14;;;;;;;7.78;3.60;;;;;;;9.03;100.00;101825.31;5134734;27;20172;-73
2023/05/12 03:52:40;;;;;;;8.73;3.50;;;;;;;9.03;100.00;101827.97;5134937;27;20023;-73
2023/05/12 03:55:06;;;;;;;7.35;3.13;;;;;;;9.04;100.00;101835.00;5134757;27;20092;-74
2023/05/12 03:57:33;;;;;;;5.20;3.10;;;;;;;9.07;100.00;101828.63;5134176;27;20384;-74
2023/05/12 03:59:58;;;;;;;4.88;2.90;;;;;;;9.06;100.00;101830.44;5134619;27;20069;-74
2023/05/12 04:02:24;;;;;;;3.90;2.60;;;;;;;9.07;100.00;101833.94;5134156;27;20427;-74
2023/05/12 04:04:49;;;;;;;5.13;2.60;;;;;;;9.05;100.00;101833.19;5134368;27;20398;-74
2023/05/12 04:07:15;;;;;;;8.32;2.70;;;;;;;9.03;100.00;101833.28;5134336;27;20426;-74
2023/05/12 04:09:40;;;;;;;5.75;2.60;;;;;;;9.03;100.00;101824.47;5134762;27;20491;-74
2023/05/12 04:12:06;;;;;;;9.05;2.42;;;;;;;8.99;100.00;101822.03;5134452;27;20042;-73
2023/05/12 04:14:31;;;;;;;8.75;2.67;;;;;;;9.00;100.00;101825.53;5134280;27;20475;-74
2023/05/12 04:16:57;;;;;;;8.93;2.50;;;;;;;9.01;100.00;101829.88;5133086;27;20027;-74
2023/05/12 04:19:22;;;;;;;8.55;2.38;;;;;;;9.01;100.00;101829.88;5132939;27;20161;-74
2023/05/12 04:21:48;;;;;;;4.18;2.45;;;;;;;9.00;100.00;101830.84;5134137;27;20486;-74
2023/05/12 04:24:13;;;;;;;6.88;3.05;;;;;;;9.02;100.00;101826.28;5134249;27;20027;-74
2023/05/12 04:26:39;;;;;;;10.68;2.90;;;;;;;9.01;100.00;101832.53;5133510;27;20204;-73
2023/05/12 04:29:04;;;;;;;11.40;3.28;;;;;;;9.01;100.00;101832.53;5134157;27;20034;-74
2023/05/12 04:31:29;;;;;;;7.35;3.20;;;;;;;9.04;100.00;101831.50;5133782;27;20034;-74
2023/05/12 04:33:55;;;;;;;8.85;3.90;;;;;;;9.04;100.00;101829.69;5134520;27;20427;-74
2023/05/12 04:36:21;;;;;;;9.32;3.70;;;;;;;9.06;100.00;101832.22;5134178;27;20065;-74
2023/05/12 04:38:46;;;;;;;16.05;4.50;;;;;;;9.06;100.00;101830.44;5134255;27;20042;-74
2023/05/12 04:41:12;;;;;;;10.32;4.40;;;;;;;9.10;100.00;101828.41;5132911;28;20041;-74
2023/05/12 04:43:37;;;;;;;12.60;5.20;;;;;;;9.09;100.00;101827.56;5134354;27;20028;-74
2023/05/12 04:46:02;;;;;;;12.88;5.22;;;;;;;9.11;100.00;101824.81;5133780;27;20035;-74
2023/05/12 04:48:28;;;;;;;17.85;5.93;;;;;;;9.12;100.00;101835.31;5133929;28;20027;-74
2023/05/12 04:50:53;;;;;;;13.27;5.95;;;;;;;9.14;100.00;101836.06;5134243;28;20048;-74
2023/05/12 04:53:18;;;;;;;14.85;6.75;;;;;;;9.16;100.00;101826.16;5133934;28;20110;-74
2023/05/12 04:55:44;;;;;;;14.85;7.18;;;;;;;9.20;100.00;101834.78;5133724;27;20454;-74
2023/05/12 04:58:12;;;;;;;19.50;7.57;;;;;;;9.21;100.00;101832.97;5134452;27;20035;-74
2023/05/12 05:00:37;;;;;;;17.45;8.10;;;;;;;9.24;100.00;101830.09;5134214;27;20028;-74
2023/05/12 05:03:03;;;;;;;15.68;9.07;;;;;;;9.27;100.00;101838.72;5133526;27;20313;-75
2023/05/12 05:05:28;;;;;;;22.17;9.70;;;;;;;9.30;100.00;101840.31;5133742;27;20035;-74
2023/05/12 05:07:53;;;;;;;20.15;10.43;;;;;;;9.32;100.00;101841.91;5133689;27;20067;-75
2023/05/12 05:10:19;;;;;;;24.63;11.13;;;;;;;9.36;100.00;101853.19;5133748;27;20458;-74
2023/05/12 05:12:44;;;;;;;23.30;11.45;;;;;;;9.38;100.00;101853.91;5132348;28;20083;-75
2023/05/12 05:15:10;;;;;;;21.17;11.48;;;;;;;9.40;100.00;101848.50;5133595;27;20055;-74
2023/05/12 05:17:36;;;;;;;20.55;12.38;;;;;;;9.43;100.00;101849.13;5133459;27;20390;-76
2023/05/12 05:20:02;;;;;;;27.27;13.43;;;;;;;9.43;100.00;101851.78;5133735;27;20041;-74
2023/05/12 05:22:28;;;;;;;22.25;11.98;;;;;;;9.46;100.00;101850.72;5133523;27;20023;-76
2023/05/12 05:24:53;;;;;;;27.13;13.68;;;;;;;9.49;100.00;101853.16;5133651;27;20038;-74
2023/05/12 05:27:19;;;;;;;23.77;13.40;;;;;;;9.53;100.00;101857.31;5133806;27;20035;-74
2023/05/12 05:29:45;;;;;;;24.65;14.20;;;;;;;9.55;100.00;101858.03;5134185;27;20415;-74
2023/05/12 05:32:10;;;;;;;26.80;14.80;;;;;;;9.57;100.00;101855.28;5133513;27;20031;-74
2023/05/12 05:34:36;;;;;;;25.90;13.77;;;;;;;9.60;100.00;101853.28;5133507;28;20110;-75
2023/05/12 05:37:01;;;;;;;28.85;15.43;;;;;;;9.63;100.00;101852.19;5133576;27;20039;-75
2023/05/12 05:39:29;;;;;;;26.17;14.70;;;;;;;9.63;100.00;101855.72;5134620;27;20084;-74
2023/05/12 05:41:55;;;;;;;30.30;16.85;;;;;;;9.67;100.00;101853.69;5137518;27;20088;-74
2023/05/12 05:44:20;;;;;;;33.38;16.63;;;;;;;9.70;100.00;101858.78;5137359;27;20039;-74
2023/05/12 05:46:45;;;;;;;39.65;17.17;;;;;;;9.73;100.00;101855.91;5137450;27;20031;-74
2023/05/12 05:49:11;;;;;;;33.83;16.25;;;;;;;9.79;100.00;101855.47;5137328;27;20066;-74
2023/05/12 05:51:36;;;;;;;29.33;15.70;;;;;;;9.84;100.00;101863.13;5137273;27;20067;-74
2023/05/12 05:54:02;;;;;;;30.80;15.80;;;;;;;9.86;100.00;101866.50;5137288;27;20031;-75
2023/05/12 05:56:27;;;;;;;30.15;15.40;;;;;;;9.89;100.00;101867.13;5135068;27;20084;-74
2023/05/12 05:58:52;;;;;;;32.35;15.38;;;;;;;9.92;100.00;101866.06;5136834;27;20080;-74
2023/05/12 06:01:18;;;;;;;36.97;16.20;;;;;;;9.96;100.00;101877.34;5137119;27;20459;-74
2023/05/12 06:03:43;;;;;;;33.00;15.95;;;;;;;9.99;100.00;101874.47;5135051;27;20054;-74
2023/05/12 06:06:08;;;;;;;37.65;15.80;;;;;;;10.01;100.00;101873.38;5136767;27;20031;-73
2023/05/12 06:08:34;;;;;;;39.58;17.33;;;;;;;10.04;100.00;101869.66;5136573;27;20467;-73
2023/05/12 06:10:59;;;;;;;42.15;18.83;;;;;;;10.07;100.00;101870.28;5136847;27;20096;-72
2023/05/12 06:13:25;;;;;;;47.00;19.63;;;;;;;10.09;100.00;101875.50;5136198;27;20035;-73
2023/05/12 06:15:50;;;;;;;46.85;19.60;;;;;;;10.11;100.00;101875.41;5136294;27;20051;-72
2023/05/12 06:18:15;;;;;;;56.30;20.75;;;;;;;10.15;100.00;101885.72;5137163;27;20035;-72
2023/05/12 06:20:41;;;;;;;48.75;21.35;;;;;;;10.17;100.00;101889.09;5136076;27;20030;-72
2023/05/12 06:23:06;;;;;;;63.58;22.55;;;;;;;10.20;100.00;101883.56;5136496;27;20160;-72
2023/05/12 06:25:32;;;;;;;68.90;24.33;;;;;;;10.24;100.00;101876.22;5136494;27;20039;-72
2023/05/12 06:27:57;;;;;;;73.72;26.10;;;;;;;10.30;100.00;101893.50;5136374;27;20069;-73
2023/05/12 06:30:22;;;;;;;71.63;26.63;;;;;;;10.35;100.00;101883.44;5136919;27;20031;-72
2023/05/12 06:32:48;;;;;;;78.82;27.55;;;;;;;10.38;100.00;101876.06;5136196;27;20046;-74
2023/05/12 06:35:13;;;;;;;76.18;27.15;;;;;;;10.44;100.00;101885.41;5136117;27;20174;-72
2023/05/12 06:37:39;;;;;;;79.30;28.40;;;;;;;10.50;100.00;101887.63;5136383;27;20038;-72
2023/05/12 06:40:05;;;;;;;84.60;28.63;;;;;;;10.57;100.00;101880.06;5136406;27;20027;-73
2023/05/12 06:42:30;;;;;;;81.18;28.80;;;;;;;10.62;100.00;101883.22;5136355;27;20031;-73
2023/05/12 06:44:55;;;;;;;85.03;30.25;;;;;;;10.67;100.00;101882.88;5136001;27;20470;-73
2023/05/12 06:47:21;;;;;;;82.13;29.02;;;;;;;10.74;100.00;101890.28;5135404;27;20066;-74
2023/05/12 06:49:46;;;;;;;83.95;29.52;;;;;;;10.79;100.00;101883.75;5135335;27;20194;-73
2023/05/12 06:52:12;;;;;;;71.97;27.25;;;;;;;10.91;100.00;101891.69;5135083;27;20031;-72
2023/05/12 06:54:37;;;;;;;79.75;28.05;;;;;;;11.05;100.00;101887.97;5135650;27;20394;-73
2023/05/12 06:57:03;;;;;;;86.22;29.48;;;;;;;11.28;100.00;101891.53;5135586;27;20074;-73
2023/05/12 06:59:29;;;;;;;82.70;28.85;;;;;;;11.56;100.00;101896.56;5136022;27;20027;-74
2023/05/12 07:01:55;;;;;;;73.40;28.70;;;;;;;11.78;100.00;101895.72;5135487;27;20027;-73
2023/05/12 07:04:21;;;;;;;65.85;27.80;;;;;;;11.99;100.00;101891.38;5135774;27;20086;-73
2023/05/12 07:06:46;;;;;;;59.90;25.77;;;;;;;12.12;100.00;101893.91;5135379;27;20364;-74
2023/05/12 07:09:13;;;;;;;55.33;25.50;;;;;;;12.26;100.00;101899.97;5135023;27;20042;-75
2023/05/12 07:11:38;;;;;;;60.10;25.65;;;;;;;12.42;100.00;101896.88;5135181;27;20558;-74
2023/05/12 07:14:03;;;;;;;50.13;24.05;;;;;;;12.49;100.00;101892.72;5135203;27;20160;-72
2023/05/12 07:16:29;;;;;;;47.53;21.80;;;;;;;12.71;100.00;101899.81;5135109;27;20520;-75
2023/05/12 07:18:54;;;;;;;41.05;21.65;;;;;;;12.85;100.00;101904.88;5135078;27;20487;-74
2023/05/12 07:21:20;;;;;;;39.75;19.25;;;;;;;12.80;100.00;101914.22;5135294;27;20050;-73
2023/05/12 07:23:46;;;;;;;43.75;20.25;;;;;;;12.70;100.00;101912.34;5134764;27;20042;-74
2023/05/12 07:26:11;;;;;;;38.17;19.02;;;;;;;12.76;100.00;101907.44;5134851;27;20050;-73
2023/05/12 07:28:37;;;;;;;41.65;20.48;;;;;;;12.83;100.00;101908.63;5134841;27;20034;-74
2023/05/12 07:31:06;;;;;;;39.70;19.10;;;;;;;12.98;100.00;101911.84;5135178;27;20045;-75
2023/05/12 07:33:33;;;;;;;31.88;17.88;;;;;;;13.00;100.00;101909.88;5134795;27;20035;-73
2023/05/12 07:35:59;;;;;;;35.58;19.00;;;;;;;13.01;100.00;101911.59;5134814;27;20031;-72
2023/05/12 07:38:24;;;;;;;31.92;17.88;;;;;;;13.15;100.00;101915.75;5134767;27;20129;-73
2023/05/12 07:40:50;;;;;;;29.55;16.48;;;;;;;13.31;100.00;101918.81;5133440;27;20074;-73
2023/05/12 07:43:16;;;;;;;26.95;16.23;;;;;;;13.21;100.00;101920.59;5135140;27;20055;-73
2023/05/12 07:45:42;;;;;;;30.73;16.80;;;;;;;13.20;100.00;101919.75;5135463;27;20222;-74
2023/05/12 07:48:07;;;;;;;27.50;14.85;;;;;;;13.08;100.00;101917.25;5134479;27;20111;-75
2023/05/12 07:50:32;;;;;;;26.40;14.10;;;;;;;12.99;100.00;101919.72;5134505;27;20028;-74
2023/05/12 07:52:58;;;;;;;21.70;13.25;;;;;;;13.12;100.00;101916.03;5134112;27;20023;-74
2023/05/12 07:55:24;;;;;;;20.88;12.45;;;;;;;13.43;100.00;101914.28;5132961;27;20027;-74
2023/05/12 07:57:50;;;;;;;24.73;14.20;;;;;;;13.81;100.00;101911.94;5134300;27;20031;-74
2023/05/12 08:00:15;;;;;;;22.80;13.95;;;;;;;14.18;100.00;101917.59;5134304;27;20035;-75
2023/05/12 08:02:41;;;;;;;17.98;12.98;;;;;;;14.55;100.00;101916.09;5133750;27;20402;-74
2023/05/12 08:05:08;;;;;;;22.20;13.07;;;;;;;14.77;100.00;101918.56;5134803;27;20027;-74
2023/05/12 08:07:35;;;;;;;21.33;12.80;;;;;;;15.02;100.00;101918.13;5134191;27;20031;-74
2023/05/12 08:10:01;;;;;;;20.33;11.80;;;;;;;15.13;100.00;101920.66;5134590;27;20430;-74
2023/05/12 08:12:27;;;;;;;19.50;12.15;;;;;;;15.23;100.00;101915.31;5134135;27;20140;-73
2023/05/12 08:14:52;;;;;;;19.88;12.02;;;;;;;15.28;100.00;101921.06;5133857;27;20079;-73
2023/05/12 08:17:17;;;;;;;18.05;11.60;;;;;;;15.36;100.00;101914.97;5134472;27;20031;-76
2023/05/12 08:19:43;;;;;;;18.10;11.52;;;;;;;15.52;100.00;101912.53;5133935;27;20045;-74
2023/05/12 08:22:08;;;;;;;24.15;11.88;;;;;;;15.87;100.00;101921.78;5133787;27;20080;-75
2023/05/12 08:24:33;;;;;;;17.33;11.80;;;;;;;15.97;100.00;101914.53;5134063;27;20059;-74
2023/05/12 08:26:59;;;;;;;17.15;11.77;;;;;;;16.19;100.00;101926.69;5133846;27;20061;-75
2023/05/12 08:29:24;;;;;;;16.52;11.55;;;;;;;16.32;100.00;101921.00;5133971;27;20031;-73
2023/05/12 08:31:49;;;;;;;18.35;10.90;;;;;;;16.55;100.00;101923.25;5134134;27;20113;-76
2023/05/12 08:34:15;;;;;;;16.45;11.60;;;;;;;16.96;100.00;101928.19;5134282;27;20059;-75
2023/05/12 08:36:41;;;;;;;19.90;11.32;;;;;;;17.15;100.00;101933.38;5133987;27;20027;-76
2023/05/12 08:39:09;;;;;;;15.15;10.70;;;;;;;17.31;100.00;101924.59;5133710;27;20382;-75
2023/05/12 08:41:38;;;;;;;22.02;11.15;;;;;;;17.50;100.00;101925.41;5133536;27;20118;-74
2023/05/12 08:44:05;;;;;;;16.17;11.30;;;;;;;17.24;100.00;101932.47;5133566;27;20084;-74
2023/05/12 08:46:31;;;;;;;18.50;11.93;;;;;;;17.24;100.00;101937.84;5133594;27;20431;-74
2023/05/12 08:48:58;;;;;;;15.80;11.00;;;;;;;17.43;100.00;101934.09;5133300;27;20034;-76
2023/05/12 08:51:24;;;;;;;16.25;11.25;;;;;;;17.32;100.00;101928.16;5133358;27;20059;-75
2023/05/12 08:53:54;;;;;;;16.77;11.50;;;;;;;17.21;100.00;101940.84;5133543;27;20166;-75
2023/05/12 08:56:21;;;;;;;18.23;11.25;;;;;;;17.49;100.00;101937.19;5133141;27;20026;-74
2023/05/12 08:58:47;;;;;;;18.35;11.95;;;;;;;17.76;100.00;101944.22;5133530;27;20027;-75
2023/05/12 09:01:14;;;;;;;19.92;11.95;;;;;;;17.97;100.00;101942.03;5133479;27;20054;-76
2023/05/12 09:03:40;;;;;;;19.98;11.75;;;;;;;18.49;100.00;101946.41;5132946;27;20043;-74
2023/05/12 09:06:07;;;;;;;16.10;11.60;;;;;;;19.02;100.00;101936.25;5133432;27;20062;-75
2023/05/12 09:08:33;;;;;;;17.75;11.27;;;;;;;19.20;100.00;101930.66;5133518;27;20033;-74
2023/05/12 09:10:59;;;;;;;17.38;11.57;;;;;;;19.48;100.00;101926.75;5133294;27;20035;-74
2023/05/12 09:13:42;;;;;;;15.20;10.95;;;;;;;19.31;100.00;101928.66;5133669;27;20467;-80
2023/05/12 09:16:12;;;;;;;17.13;11.18;;;;;;;19.41;100.00;101936.53;5137332;27;20481;-74
2023/05/12 09:18:47;;;;;;;16.20;10.67;;;;;;;19.59;100.00;101930.97;5137378;27;20046;-76
2023/05/12 09:21:13;;;;;;;14.68;10.55;;;;;;;19.63;100.00;101934.97;5137478;27;20485;-74
2023/05/12 09:23:38;;;;;;;13.15;10.00;;;;;;;19.62;100.00;101933.31;5137643;27;20039;-75
2023/05/12 09:26:04;;;;;;;16.13;10.82;;;;;;;19.53;100.00;101946.81;5137507;27;20118;-74
2023/05/12 09:28:37;;;;;;;21.70;10.70;;;;;;;19.33;100.00;101935.56;5137710;27;20038;-73
2023/05/12 09:31:16;;;;;;;20.80;11.30;;;;;;;19.26;100.00;101939.09;5137798;27;20039;-73
2023/05/12 09:33:41;;;;;;;17.42;10.75;;;;;;;19.45;100.00;101938.75;5137482;27;20030;-74
2023/05/12 09:36:07;;;;;;;15.90;10.25;;;;;;;19.79;100.00;101936.84;5137415;27;20031;-73
2023/05/12 09:38:33;;;;;;;15.10;9.73;;;;;;;20.31;100.00;101938.16;5137068;27;20486;-73
2023/05/12 09:40:58;;;;;;;16.65;9.85;;;;;;;20.99;100.00;101931.13;5137227;27;20095;-74
2023/05/12 09:43:23;;;;;;;15.70;10.38;;;;;;;21.46;100.00;101937.28;5136874;27;20067;-74
2023/05/12 09:45:49;;;;;;;15.25;11.23;;;;;;;21.65;100.00;101942.19;5137384;27;20031;-74
2023/05/12 09:48:15;;;;;;;12.23;10.10;;;;;;;21.62;100.00;101941.75;5136747;27;20119;-72
2023/05/12 09:50:53;;;;;;;15.48;10.75;;;;;;;21.71;100.00;101946.03;5136837;27;20039;-74
2023/05/12 09:53:19;;;;;;;13.45;10.02;;;;;;;21.23;100.00;101946.31;5136599;27;20435;-75
2023/05/12 09:55:46;;;;;;;16.98;10.25;;;;;;;20.68;100.00;101947.44;5136466;27;20031;-74
2023/05/12 09:58:14;;;;;;;16.40;11.30;;;;;;;20.53;100.00;101947.31;5136759;27;20029;-74
2023/05/12 10:00:40;;;;;;;16.60;11.48;;;;;;;20.17;100.00;101942.41;5136538;27;20023;-73
2023/05/12 10:03:10;;;;;;;15.43;10.98;;;;;;;20.31;100.00;101947.09;5136492;27;20059;-73
2023/05/12 10:05:42;;;;;;;15.20;11.00;;;;;;;20.94;100.00;101950.63;5136861;27;20027;-73
2023/05/12 10:08:12;;;;;;;14.40;10.43;;;;;;;21.89;100.00;101948.38;5136432;27;20030;-77
2023/05/12 10:10:38;;;;;;;14.00;10.60;;;;;;;22.84;100.00;101946.59;5136715;27;20028;-74
2023/05/12 10:13:05;;;;;;;17.38;11.00;;;;;;;23.57;100.00;101937.38;5136634;27;20031;-77
2023/05/12 10:15:32;;;;;;;13.57;10.10;;;;;;;24.09;99.53;101944.19;5136555;27;20130;-72
2023/05/12 10:17:59;;;;;;;14.65;10.55;;;;;;;24.11;83.96;101944.00;5136516;27;20039;-71
2023/05/12 10:20:26;;;;;;;13.50;9.88;;;;;;;23.80;84.93;101956.13;5136489;27;20465;-71
2023/05/12 10:22:55;;;;;;;16.83;10.40;;;;;;;23.23;92.08;101952.59;5136464;27;20438;-71
2023/05/12 10:25:22;;;;;;;16.45;10.60;;;;;;;22.29;100.00;101948.88;5136080;27;20533;-72
2023/05/12 10:27:47;;;;;;;13.93;10.20;;;;;;;21.68;100.00;101951.81;5136531;27;20031;-71
2023/05/12 10:30:14;;;;;;;13.43;9.98;;;;;;;21.59;100.00;101951.06;5135145;27;20512;-71
2023/05/12 10:32:39;;;;;;;11.45;9.80;;;;;;;21.90;100.00;101955.47;5136364;27;20028;-73
2023/05/12 10:35:09;;;;;;;14.93;10.38;;;;;;;21.92;100.00;101949.88;5136507;27;20111;-71
2023/05/12 10:37:36;;;;;;;13.55;10.77;;;;;;;22.15;100.00;101963.28;5136262;27;20031;-72
2023/05/12 10:40:03;;;;;;;15.68;10.15;;;;;;;22.21;100.00;101959.81;5136146;27;20039;-72
2023/05/12 10:42:40;;;;;;;12.88;10.27;;;;;;;22.73;100.00;101957.94;5136009;27;20087;-72
2023/05/12 10:45:16;;;;;;;14.52;10.77;;;;;;;23.64;90.47;101954.56;5136379;27;20027;-74
2023/05/12 10:47:42;;;;;;;12.68;9.82;;;;;;;23.94;88.13;101947.03;5135945;27;20038;-71
2023/05/12 10:50:12;;;;;;;16.50;10.23;;;;;;;23.86;91.25;101958.06;5136026;27;20038;-72
2023/05/12 10:52:38;;;;;;;14.20;10.07;;;;;;;23.19;83.43;101951.31;5136159;27;20027;-72
2023/05/12 10:55:04;;;;;;;15.48;10.20;;;;;;;23.22;87.08;101956.34;5135848;27;20394;-72
2023/05/12 10:57:30;;;;;;;12.70;10.68;;;;;;;23.88;90.68;101952.44;5135694;27;20027;-73
2023/05/12 10:59:57;;;;;;;13.02;9.95;;;;;;;23.86;85.73;101952.63;5136224;27;20031;-72
2023/05/12 11:02:27;;;;;;;11.77;10.20;;;;;;;22.83;86.68;101947.63;5135251;27;20027;-77
2023/05/12 11:04:58;;;;;;;13.43;10.85;;;;;;;22.64;97.08;101953.69;5135709;27;20505;-76
2023/05/12 11:07:26;;;;;;;12.77;9.55;;;;;;;22.45;100.00;101957.84;5136391;27;20099;-76